createdAt,value
2018-10-11T00:01:10.809Z,10.48
2018-10-11T00:03:40.607Z,10.26
2018-10-11T00:06:10.413Z,10.14
2018-10-11T00:08:40.261Z,10.14
2018-10-11T00:11:10.318Z,10.06
2018-10-11T00:13:40.095Z,9.92
2018-10-11T00:16:09.770Z,9.99
2018-10-11T00:18:39.723Z,10.16
2018-10-11T00:21:09.457Z,10.08
2018-10-11T00:24:07.978Z,9.89
2018-10-11T00:26:38.202Z,9.80
2018-10-11T00:29:08.018Z,9.92
2018-10-11T00:31:37.610Z,9.89
2018-10-11T00:34:07.965Z,9.76
2018-10-11T00:36:37.836Z,9.54
2018-10-11T00:39:09.239Z,9.51
2018-10-11T00:41:39.959Z,9.65
2018-10-11T00:44:09.769Z,9.67
2018-10-11T00:46:39.443Z,9.82
2018-10-11T00:49:09.067Z,9.89
2018-10-11T00:51:38.815Z,9.74
2018-10-11T00:54:08.979Z,9.54
2018-10-11T00:56:39.291Z,9.45
2018-10-11T00:59:13.553Z,9.35
2018-10-11T01:01:43.211Z,9.29
2018-10-11T01:04:13.246Z,9.40
2018-10-11T01:06:42.969Z,9.37
2018-10-11T01:09:13.251Z,9.34
2018-10-11T01:11:42.886Z,9.25
2018-10-11T01:14:12.833Z,9.22
2018-10-11T01:16:42.436Z,9.29
2018-10-11T01:19:12.103Z,9.44
2018-10-11T01:21:41.718Z,9.36
2018-10-11T01:24:11.327Z,9.34
2018-10-11T01:26:40.948Z,9.48
2018-10-11T01:29:37.489Z,9.58
2018-10-11T01:32:07.632Z,9.52
2018-10-11T01:34:37.266Z,9.74
2018-10-11T01:37:07.327Z,9.81
2018-10-11T01:39:36.948Z,9.67
2018-10-11T01:42:06.858Z,9.67
2018-10-11T01:44:36.458Z,9.58
2018-10-11T01:47:06.311Z,9.53
2018-10-11T01:49:43.346Z,9.40
2018-10-11T01:52:12.891Z,9.25
2018-10-11T01:54:42.583Z,9.42
2018-10-11T01:57:12.631Z,9.54
2018-10-11T01:59:42.408Z,9.60
2018-10-11T02:02:12.763Z,9.56
2018-10-11T02:04:42.350Z,9.85
2018-10-11T02:07:11.966Z,9.86
2018-10-11T02:09:41.563Z,9.74
2018-10-11T02:12:11.180Z,9.74
2018-10-11T02:15:06.690Z,9.68
2018-10-11T02:17:36.386Z,9.49
2018-10-11T02:20:06.007Z,9.54
2018-10-11T02:22:35.652Z,9.67
2018-10-11T02:25:05.391Z,9.68
2018-10-11T02:27:35.099Z,9.50
2018-10-11T02:30:04.836Z,9.39
2018-10-11T02:32:47.987Z,9.34
2018-10-11T02:35:17.661Z,9.57
2018-10-11T02:37:47.451Z,9.68
2018-10-11T02:40:17.051Z,9.58
2018-10-11T02:42:46.690Z,9.52
2018-10-11T02:45:16.330Z,9.51
2018-10-11T02:47:45.914Z,9.53
2018-10-11T02:50:15.590Z,9.51
2018-10-11T02:53:09.397Z,9.53
2018-10-11T02:55:39.300Z,9.50
2018-10-11T02:58:25.907Z,9.61
2018-10-11T03:00:55.584Z,9.60
2018-10-11T03:03:30.591Z,9.59
2018-10-11T03:06:02.628Z,9.65
2018-10-11T03:08:32.660Z,9.63
2018-10-11T03:11:02.618Z,9.51
2018-10-11T03:13:32.343Z,9.50
2018-10-11T03:16:02.215Z,9.41
2018-10-11T03:18:31.891Z,9.39
2018-10-11T03:21:01.642Z,9.52
2018-10-11T03:23:31.291Z,9.40
2018-10-11T03:26:00.951Z,9.46
2018-10-11T03:28:30.510Z,9.51
2018-10-11T03:31:00.224Z,9.44
2018-10-11T03:33:29.763Z,9.47
2018-10-11T03:35:59.365Z,9.46
2018-10-11T03:38:28.994Z,9.50
2018-10-11T03:40:58.611Z,9.49
2018-10-11T03:43:28.226Z,9.51
2018-10-11T03:45:57.858Z,9.46
2018-10-11T03:48:27.442Z,9.42
2018-10-11T03:50:57.134Z,9.46
2018-10-11T03:53:26.799Z,9.45
2018-10-11T03:55:56.466Z,9.44
2018-10-11T03:58:26.214Z,9.33
2018-10-11T04:00:55.934Z,9.26
2018-10-11T04:03:25.578Z,9.32
2018-10-11T04:05:55.247Z,9.46
2018-10-11T04:08:25.179Z,9.48
2018-10-11T04:10:55.198Z,9.33
2018-10-11T04:13:24.934Z,9.34
2018-10-11T04:15:54.586Z,9.46
2018-10-11T04:18:24.107Z,9.49
2018-10-11T04:20:53.691Z,9.51
2018-10-11T04:23:31.386Z,9.31
2018-10-11T04:26:01.616Z,9.21
2018-10-11T04:28:31.226Z,9.11
2018-10-11T04:31:01.098Z,9.12
2018-10-11T04:39:43.253Z,9.19
2018-10-11T04:42:12.852Z,9.29
2018-10-11T04:44:42.479Z,9.24
2018-10-11T04:47:12.095Z,9.28
2018-10-11T04:49:41.690Z,9.22
2018-10-11T04:52:11.360Z,9.16
2018-10-11T04:54:41.091Z,9.18
2018-10-11T04:57:11.915Z,9.14
2018-10-11T04:59:58.922Z,9.09
2018-10-11T05:02:28.554Z,9.05
2018-10-11T05:05:00.143Z,8.98
2018-10-11T05:07:33.642Z,8.98
2018-10-11T05:10:03.258Z,8.94
2018-10-11T05:12:33.007Z,8.89
2018-10-11T05:15:02.854Z,8.83
2018-10-11T05:17:33.160Z,8.90
2018-10-11T05:20:02.848Z,8.95
2018-10-11T05:22:32.490Z,8.90
2018-10-11T05:25:02.162Z,8.88
2018-10-11T05:27:31.739Z,8.90
2018-10-11T05:30:01.319Z,9.07
2018-10-11T05:32:31.434Z,9.13
2018-10-11T05:35:01.112Z,9.12
2018-10-11T05:37:54.266Z,9.07
2018-10-11T05:40:23.828Z,9.01
2018-10-11T05:42:53.479Z,9.05
2018-10-11T05:45:25.650Z,9.05
2018-10-11T05:47:55.157Z,8.98
2018-10-11T05:50:24.632Z,8.86
2018-10-11T05:52:53.938Z,8.76
2018-10-11T05:55:30.178Z,8.72
2018-10-11T05:57:59.735Z,8.73
2018-10-11T06:00:29.403Z,8.96
2018-10-11T06:03:04.331Z,9.18
2018-10-11T06:05:34.006Z,9.17
2018-10-11T06:08:04.333Z,9.18
2018-10-11T06:10:38.535Z,9.30
2018-10-11T06:13:09.174Z,9.36
2018-10-11T06:15:39.503Z,9.37
2018-10-11T06:18:09.710Z,9.36
2018-10-11T06:20:39.433Z,9.56
2018-10-11T06:23:09.167Z,9.82
2018-10-11T06:25:38.810Z,10.17
2018-10-11T06:28:09.137Z,11.09
2018-10-11T06:30:43.749Z,11.89
2018-10-11T06:33:13.599Z,12.34
2018-10-11T06:35:43.400Z,13.29
2018-10-11T06:38:13.066Z,13.80
2018-10-11T06:40:42.777Z,14.32
2018-10-11T06:43:12.551Z,15.00
2018-10-11T06:45:42.770Z,15.50
2018-10-11T06:48:12.427Z,15.81
2018-10-11T06:50:44.006Z,16.57
2018-10-11T06:53:13.700Z,17.25
2018-10-11T06:55:43.370Z,17.17
2018-10-11T06:58:13.071Z,16.88
2018-10-11T07:00:43.878Z,17.21
2018-10-11T07:03:13.591Z,17.89
2018-10-11T07:05:43.250Z,18.40
2018-10-11T07:08:12.903Z,17.92
2018-10-11T07:10:42.571Z,17.59
2018-10-11T07:13:12.303Z,16.96
2018-10-11T07:15:48.175Z,17.72
2018-10-11T07:18:17.952Z,18.07
2018-10-11T07:20:47.533Z,17.84
2018-10-11T07:23:17.346Z,17.44
2018-10-11T07:25:47.209Z,16.98
2018-10-11T07:28:16.893Z,16.55
2018-10-11T07:30:46.623Z,16.70
2018-10-11T07:33:16.254Z,15.98
2018-10-11T07:35:45.926Z,16.90
2018-10-11T07:38:15.579Z,16.82
2018-10-11T07:40:45.386Z,17.19
2018-10-11T07:43:14.999Z,17.37
2018-10-11T07:45:44.668Z,16.72
2018-10-11T07:48:14.340Z,17.10
2018-10-11T07:50:44.017Z,16.95
2018-10-11T07:53:13.662Z,16.78
2018-10-11T07:55:43.335Z,17.07
2018-10-11T07:58:13.241Z,16.90
2018-10-11T08:00:43.051Z,16.98
2018-10-11T08:03:12.805Z,17.75
2018-10-11T08:05:42.442Z,17.45
2018-10-11T08:08:12.175Z,18.02
2018-10-11T08:10:42.129Z,17.69
2018-10-11T08:13:11.914Z,17.26
2018-10-11T08:15:41.665Z,17.20
2018-10-11T08:18:11.311Z,17.35
2018-10-11T08:20:41.006Z,17.10
2018-10-11T08:23:10.531Z,17.02
2018-10-11T08:25:40.429Z,17.05
2018-10-11T08:28:09.731Z,17.46
2018-10-11T08:30:39.403Z,17.30
2018-10-11T08:33:09.029Z,17.48
2018-10-11T08:35:38.654Z,17.19
2018-10-11T08:38:08.575Z,17.78
2018-10-11T08:40:38.051Z,17.83
2018-10-11T08:43:18.421Z,17.67
2018-10-11T08:45:48.154Z,18.37
2018-10-11T08:48:17.770Z,19.17
2018-10-11T08:50:47.479Z,19.21
2018-10-11T08:53:17.142Z,19.23
2018-10-11T08:55:46.841Z,19.51
2018-10-11T08:58:16.586Z,18.67
2018-10-11T09:00:46.610Z,18.50
2018-10-11T09:03:16.352Z,19.06
2018-10-11T09:05:46.002Z,19.48
2018-10-11T09:08:15.672Z,20.04
2018-10-11T09:10:45.286Z,20.09
2018-10-11T09:13:15.100Z,19.87
2018-10-11T09:15:44.691Z,19.53
2018-10-11T09:18:14.392Z,19.58
2018-10-11T09:20:44.065Z,19.87
2018-10-11T09:23:13.772Z,20.51
2018-10-11T09:25:43.494Z,20.59
2018-10-11T09:28:13.483Z,21.90
2018-10-11T09:30:43.198Z,21.87
2018-10-11T09:33:12.993Z,22.12
2018-10-11T09:35:42.683Z,22.54
2018-10-11T09:38:12.383Z,22.01
2018-10-11T09:40:41.960Z,21.69
2018-10-11T09:43:11.721Z,20.94
2018-10-11T09:45:41.382Z,20.74
2018-10-11T09:48:11.067Z,20.82
2018-10-11T09:50:40.754Z,20.82
2018-10-11T09:53:10.405Z,21.20
2018-10-11T09:55:40.034Z,21.15
2018-10-11T09:58:09.931Z,21.08
2018-10-11T10:00:44.928Z,21.81
2018-10-11T10:03:14.816Z,21.78
2018-10-11T10:05:44.513Z,21.97
2018-10-11T10:08:14.232Z,21.90
2018-10-11T10:10:44.192Z,22.71
2018-10-11T10:13:13.887Z,22.34
2018-10-11T10:15:43.825Z,22.63
2018-10-11T10:18:13.423Z,22.29
2018-10-11T10:20:43.096Z,22.69
2018-10-11T10:23:12.680Z,23.14
2018-10-11T10:26:07.641Z,21.88
2018-10-11T10:28:39.307Z,22.86
2018-10-11T10:31:08.926Z,23.16
2018-10-11T10:33:38.647Z,21.92
2018-10-11T10:36:08.694Z,22.18
2018-10-11T10:38:38.242Z,21.73
2018-10-11T10:41:07.868Z,22.39
2018-10-11T10:43:37.526Z,22.55
2018-10-11T10:46:07.198Z,22.43
2018-10-11T10:48:36.825Z,22.09
2018-10-11T10:51:06.508Z,22.37
2018-10-11T10:53:36.118Z,21.91
2018-10-11T10:56:05.734Z,21.22
2018-10-11T10:58:35.811Z,21.29
2018-10-11T11:01:05.483Z,21.56
2018-10-11T11:03:35.272Z,22.64
2018-10-11T11:06:09.315Z,23.45
2018-10-11T11:08:38.946Z,24.00
2018-10-11T11:11:08.826Z,23.62
2018-10-11T11:13:39.042Z,23.12
2018-10-11T11:16:09.639Z,22.73
2018-10-11T11:18:39.275Z,23.66
2018-10-11T11:21:18.935Z,23.87
2018-10-11T11:23:48.574Z,23.93
2018-10-11T11:26:18.282Z,23.65
2018-10-11T11:28:47.907Z,23.27
2018-10-11T11:31:37.544Z,23.51
2018-10-11T11:34:07.272Z,22.09
2018-10-11T11:36:37.146Z,22.00
2018-10-11T11:39:09.681Z,21.42
2018-10-11T11:41:40.646Z,21.56
2018-10-11T11:44:11.691Z,20.89
2018-10-11T11:46:41.345Z,20.89
2018-10-11T11:49:10.981Z,20.41
2018-10-11T11:51:40.550Z,20.79
2018-10-11T11:54:19.818Z,21.00
2018-10-11T11:56:50.342Z,20.93
2018-10-11T11:59:20.008Z,20.86
2018-10-11T12:01:49.852Z,20.71
2018-10-11T12:04:19.552Z,20.75
2018-10-11T12:06:49.266Z,20.92
2018-10-11T12:09:18.914Z,20.80
2018-10-11T12:11:48.627Z,20.76
2018-10-11T12:14:18.420Z,20.73
2018-10-11T12:16:48.220Z,20.90
2018-10-11T12:19:18.269Z,21.20
2018-10-11T12:21:49.714Z,20.89
2018-10-11T12:24:19.394Z,20.71
2018-10-11T12:26:48.983Z,20.73
2018-10-11T12:29:18.642Z,20.64
2018-10-11T12:32:13.344Z,20.97
2018-10-11T12:34:43.201Z,21.12
2018-10-11T12:37:13.040Z,21.29
2018-10-11T12:39:42.731Z,20.90
2018-10-11T12:42:14.313Z,20.29
2018-10-11T12:44:44.083Z,20.67
2018-10-11T12:47:13.847Z,20.59
2018-10-11T12:49:46.616Z,20.47
2018-10-11T12:52:13.796Z,20.41
2018-10-11T12:54:44.223Z,20.20
2018-10-11T12:57:17.170Z,20.36
2018-10-11T12:59:44.302Z,20.39
2018-10-11T13:02:14.829Z,20.40
2018-10-11T13:04:44.565Z,20.25
2018-10-11T13:07:14.244Z,20.18
2018-10-11T13:09:45.721Z,20.27
2018-10-11T13:12:15.607Z,19.88
2018-10-11T13:14:45.271Z,20.20
2018-10-11T13:17:15.027Z,20.50
2018-10-11T13:19:44.974Z,20.58
2018-10-11T13:22:14.782Z,20.54
2018-10-11T13:24:54.374Z,20.33
2018-10-11T13:27:24.039Z,20.42
2018-10-11T13:29:53.780Z,20.52
2018-10-11T13:32:23.443Z,20.40
2018-10-11T13:34:53.391Z,20.21
2018-10-11T13:37:22.931Z,20.18
2018-10-11T13:39:56.190Z,20.20
2018-10-11T13:42:22.271Z,20.15
2018-10-11T13:44:52.131Z,20.19
2018-10-11T13:47:21.843Z,20.09
2018-10-11T13:49:51.661Z,19.78
2018-10-11T13:52:22.512Z,19.61
2018-10-11T13:54:50.998Z,19.37
2018-10-11T13:57:24.079Z,19.61
2018-10-11T13:59:50.644Z,19.52
2018-10-11T14:02:20.411Z,19.50
2018-10-11T14:04:50.156Z,19.56
2018-10-11T14:07:19.855Z,19.50
2018-10-11T14:09:51.194Z,19.35
2018-10-11T14:12:20.890Z,19.30
2018-10-11T14:14:50.932Z,19.26
2018-10-11T14:17:42.757Z,19.23
2018-10-11T14:20:14.849Z,19.10
2018-10-11T14:22:44.970Z,19.06
2018-10-11T14:25:19.111Z,19.11
2018-10-11T14:27:49.528Z,19.19
2018-10-11T14:30:20.012Z,19.17
2018-10-11T14:32:49.737Z,19.10
2018-10-11T14:35:19.405Z,19.15
2018-10-11T14:37:50.711Z,18.97
2018-10-11T14:40:24.403Z,18.98
2018-10-11T14:43:11.799Z,18.98
2018-10-11T14:45:43.082Z,18.99
2018-10-11T14:48:13.535Z,19.09
2018-10-11T14:50:43.502Z,19.02
2018-10-11T14:53:13.339Z,19.08
2018-10-11T14:55:43.374Z,19.04
2018-10-11T14:58:13.030Z,19.07
2018-10-11T15:00:44.518Z,19.16
2018-10-11T15:03:14.348Z,19.15
2018-10-11T15:05:44.135Z,19.18
2018-10-11T15:08:14.127Z,19.18
2018-10-11T15:10:43.944Z,19.29
2018-10-11T15:13:13.802Z,19.34
2018-10-11T15:15:43.499Z,19.28
2018-10-11T15:18:13.522Z,19.27
2018-10-11T15:20:43.248Z,19.23
2018-10-11T15:23:13.066Z,19.22
2018-10-11T15:25:43.103Z,19.22
2018-10-11T15:28:12.983Z,19.25
2018-10-11T15:30:42.549Z,19.16
2018-10-11T15:33:12.298Z,19.43
2018-10-11T15:35:41.963Z,19.42
2018-10-11T15:38:11.700Z,19.41
2018-10-11T15:40:41.415Z,19.37
2018-10-11T15:43:12.493Z,19.25
2018-10-11T15:45:42.186Z,19.19
2018-10-11T15:48:11.783Z,19.10
2018-10-11T15:50:41.651Z,19.18
2018-10-11T15:53:12.000Z,19.19
2018-10-11T15:55:41.729Z,19.28
2018-10-11T15:58:11.469Z,19.44
2018-10-11T16:00:42.171Z,19.39
2018-10-11T16:03:11.861Z,19.52
2018-10-11T16:05:41.906Z,19.67
2018-10-11T16:08:11.316Z,19.54
2018-10-11T16:10:40.991Z,19.28
2018-10-11T16:13:10.664Z,19.68
2018-10-11T16:15:40.428Z,20.04
2018-10-11T16:18:10.065Z,20.15
2018-10-11T16:20:39.695Z,20.10
2018-10-11T16:23:09.344Z,20.14
2018-10-11T16:25:38.955Z,20.01
2018-10-11T16:28:08.640Z,19.83
2018-10-11T16:30:45.825Z,19.65
2018-10-11T16:33:16.514Z,19.48
2018-10-11T16:35:51.802Z,19.37
2018-10-11T16:38:23.603Z,19.21
2018-10-11T16:41:11.064Z,19.02
2018-10-11T16:43:45.430Z,18.82
2018-10-11T16:46:15.139Z,18.59
2018-10-11T16:48:46.077Z,18.43
2018-10-11T16:51:18.003Z,18.24
2018-10-11T16:53:48.277Z,18.08
2018-10-11T16:56:19.054Z,17.89
2018-10-11T16:58:48.790Z,17.72
2018-10-11T17:01:18.514Z,17.67
2018-10-11T17:03:48.923Z,17.60
2018-10-11T17:06:19.370Z,17.49
2018-10-11T17:08:49.263Z,17.42
2018-10-11T17:11:18.974Z,17.40
2018-10-11T17:13:48.705Z,17.29
2018-10-11T17:16:18.330Z,17.18
2018-10-11T17:18:48.280Z,17.12
2018-10-11T17:21:18.478Z,17.00
2018-10-11T17:23:48.112Z,16.86
2018-10-11T17:26:18.059Z,16.74
2018-10-11T17:28:48.310Z,16.68
2018-10-11T17:31:19.454Z,16.58
2018-10-11T17:33:49.662Z,16.49
2018-10-11T17:36:20.374Z,16.39
2018-10-11T17:38:50.149Z,16.29
2018-10-11T17:41:19.861Z,16.20
2018-10-11T17:43:49.680Z,16.13
2018-10-11T17:46:19.654Z,16.04
2018-10-11T17:48:51.310Z,15.95
2018-10-11T17:51:26.449Z,15.85
2018-10-11T17:53:56.500Z,15.76
2018-10-11T17:56:26.171Z,15.70
2018-10-11T17:59:03.095Z,15.65
2018-10-11T18:01:33.239Z,15.57
2018-10-11T18:04:05.187Z,15.48
2018-10-11T18:06:37.064Z,15.35
2018-10-11T18:09:14.027Z,15.24
2018-10-11T18:11:44.643Z,15.10
2018-10-11T18:14:16.816Z,14.96
2018-10-11T18:16:47.583Z,14.86
2018-10-11T18:19:18.426Z,14.78
2018-10-11T18:21:48.393Z,14.68
2018-10-11T18:24:18.443Z,14.67
2018-10-11T18:26:48.438Z,14.58
2018-10-11T18:29:21.299Z,14.52
2018-10-11T18:31:54.935Z,14.42
2018-10-11T18:34:25.535Z,14.34
2018-10-11T18:36:57.063Z,14.28
2018-10-11T18:39:29.228Z,14.23
2018-10-11T18:42:11.989Z,14.21
2018-10-11T18:44:43.005Z,14.19
2018-10-11T18:47:15.038Z,14.10
2018-10-11T18:49:46.491Z,13.99
2018-10-11T18:52:17.067Z,13.91
2018-10-11T18:54:51.321Z,13.85
2018-10-11T18:57:23.076Z,13.84
2018-10-11T18:59:53.413Z,13.80
2018-10-11T19:02:24.208Z,13.71
2018-10-11T19:04:54.291Z,13.60
2018-10-11T19:07:24.988Z,13.53
2018-10-11T19:09:54.975Z,13.48
2018-10-11T19:12:32.456Z,13.43
2018-10-11T19:15:18.859Z,13.38
2018-10-11T19:17:51.459Z,13.33
2018-10-11T19:20:21.563Z,13.32
2018-10-11T19:22:58.796Z,13.31
2018-10-11T19:25:36.866Z,13.29
2018-10-11T19:28:06.731Z,13.24
2018-10-11T19:30:36.531Z,13.22
2018-10-11T19:33:09.658Z,13.15
2018-10-11T19:35:39.347Z,13.09
2018-10-11T19:38:09.392Z,13.05
2018-10-11T19:40:39.149Z,12.98
2018-10-11T19:43:09.852Z,12.98
2018-10-11T19:45:40.040Z,12.96
2018-10-11T19:48:22.476Z,12.97
2018-10-11T19:50:52.638Z,12.95
2018-10-11T19:53:22.494Z,12.93
2018-10-11T19:55:52.182Z,12.85
2018-10-11T19:58:23.917Z,12.77
2018-10-11T20:00:54.534Z,12.67
2018-10-11T20:03:26.315Z,12.63
2018-10-11T20:05:56.092Z,12.62
2018-10-11T20:08:27.401Z,12.58
2018-10-11T20:11:00.796Z,12.58
2018-10-11T20:13:31.603Z,12.56
2018-10-11T20:16:02.508Z,12.52
2018-10-11T20:18:33.753Z,12.43
2018-10-11T20:21:07.843Z,12.37
2018-10-11T20:23:42.142Z,12.34
2018-10-11T20:26:19.426Z,12.33
2018-10-11T20:28:50.655Z,12.33
2018-10-11T20:31:20.727Z,12.31
2018-10-11T20:33:57.755Z,12.25
2018-10-11T20:36:28.074Z,12.23
2018-10-11T20:39:00.223Z,12.14
2018-10-11T20:41:30.262Z,12.04
2018-10-11T20:44:00.009Z,12.00
2018-10-11T20:46:29.824Z,11.87
2018-10-11T20:49:02.853Z,11.76
2018-10-11T20:51:32.961Z,11.77
2018-10-11T20:54:03.780Z,11.84
2018-10-11T20:56:33.666Z,11.89
2018-10-11T20:59:07.974Z,11.86
2018-10-11T21:01:37.934Z,11.79
2018-10-11T21:04:07.567Z,11.75
2018-10-11T21:06:44.598Z,11.69
2018-10-11T21:09:14.721Z,11.54
2018-10-11T21:11:45.479Z,11.48
2018-10-11T21:14:17.731Z,11.48
2018-10-11T21:16:47.900Z,11.46
2018-10-11T21:19:38.490Z,11.53
2018-10-11T21:22:08.787Z,11.62
2018-10-11T21:24:56.659Z,11.64
2018-10-11T21:27:36.790Z,11.70
2018-10-11T21:33:18.324Z,11.65
2018-10-11T21:35:48.996Z,11.60
2018-10-11T21:38:19.018Z,11.53
2018-10-11T21:40:48.933Z,11.50
2018-10-11T21:43:21.006Z,11.41
2018-10-11T21:45:50.987Z,11.39
2018-10-11T21:48:21.220Z,11.26
2018-10-11T21:50:51.238Z,11.28
2018-10-11T21:53:21.468Z,11.20
2018-10-11T21:55:52.877Z,11.25
2018-10-11T21:58:27.978Z,11.20
2018-10-11T22:01:28.496Z,11.04
2018-10-11T22:03:58.246Z,10.96
2018-10-11T22:06:29.488Z,10.91
2018-10-11T22:08:59.288Z,10.97
2018-10-11T22:11:29.689Z,11.01
2018-10-11T22:13:59.523Z,10.91
2018-10-11T22:16:39.795Z,10.81
2018-10-11T22:19:10.559Z,10.77
2018-10-11T22:21:40.491Z,10.77
2018-10-11T22:24:10.351Z,10.65
2018-10-11T22:26:40.336Z,10.57
2018-10-11T22:29:10.326Z,10.58
2018-10-11T22:31:40.070Z,10.56
2018-10-11T22:34:09.816Z,10.79
2018-10-11T22:36:44.360Z,10.91
2018-10-11T22:39:14.102Z,11.03
2018-10-11T22:41:43.927Z,11.13
2018-10-11T22:44:13.724Z,11.06
2018-10-11T22:46:43.807Z,10.88
2018-10-11T22:49:13.446Z,10.73
2018-10-11T22:51:43.226Z,10.61
2018-10-11T22:54:13.024Z,10.61
2018-10-11T22:56:43.096Z,10.84
2018-10-11T22:59:12.774Z,10.89
2018-10-11T23:02:10.954Z,10.87
2018-10-11T23:04:40.894Z,10.89
2018-10-11T23:07:11.096Z,10.80
2018-10-11T23:12:46.972Z,10.76
2018-10-11T23:15:16.626Z,10.77
2018-10-11T23:17:46.399Z,10.90
2018-10-11T23:20:41.922Z,10.72
2018-10-11T23:23:11.594Z,10.55
2018-10-11T23:25:41.326Z,10.51
2018-10-11T23:31:12.287Z,10.66
2018-10-11T23:33:42.619Z,10.79
2018-10-11T23:36:12.226Z,10.93
2018-10-11T23:38:42.066Z,10.93
2018-10-11T23:41:11.666Z,10.96
2018-10-11T23:43:41.375Z,10.99
2018-10-11T23:46:10.980Z,11.05
2018-10-11T23:48:40.742Z,10.99
2018-10-11T23:51:10.365Z,10.92
2018-10-11T23:53:40.021Z,10.93
2018-10-11T23:56:09.615Z,10.85
2018-10-11T23:58:39.278Z,10.82
